createdAt,value
2022-09-26T00:01:37.697Z,7.53
2022-09-26T00:04:15.716Z,7.60
2022-09-26T00:06:43.470Z,8.02
2022-09-26T00:09:11.071Z,7.63
2022-09-26T00:11:39.430Z,8.10
2022-09-26T00:14:12.492Z,7.40
2022-09-26T00:16:40.098Z,7.20
2022-09-26T00:19:08.223Z,6.85
2022-09-26T00:21:36.028Z,6.45
2022-09-26T00:24:04.270Z,6.43
2022-09-26T00:26:33.612Z,6.32
2022-09-26T00:29:10.314Z,6.72
2022-09-26T00:31:44.285Z,5.47
2022-09-26T00:34:14.616Z,6.07
2022-09-26T00:36:42.074Z,5.88
2022-09-26T00:39:12.449Z,4.95
2022-09-26T00:41:39.900Z,5.15
2022-09-26T00:44:35.363Z,5.63
2022-09-26T00:47:03.905Z,5.45
2022-09-26T00:49:38.517Z,4.63
2022-09-26T00:52:13.074Z,5.53
2022-09-26T00:54:45.300Z,5.43
2022-09-26T00:57:20.656Z,5.50
2022-09-26T00:59:56.205Z,4.90
2022-09-26T01:02:25.961Z,5.38
2022-09-26T01:04:54.271Z,4.93
2022-09-26T01:07:24.463Z,5.18
2022-09-26T01:09:52.430Z,5.50
2022-09-26T01:12:21.107Z,5.43
2022-09-26T01:14:52.441Z,5.60
2022-09-26T01:17:24.748Z,5.90
2022-09-26T01:20:34.546Z,5.32
2022-09-26T01:23:29.543Z,5.75
2022-09-26T01:26:00.069Z,5.18
2022-09-26T01:28:58.896Z,5.53
2022-09-26T01:32:11.952Z,5.70
2022-09-26T01:35:09.970Z,5.30
2022-09-26T01:37:40.395Z,5.40
2022-09-26T01:40:45.310Z,6.13
2022-09-26T01:43:21.770Z,5.93
2022-09-26T01:46:20.455Z,5.35
2022-09-26T01:48:55.472Z,5.75
2022-09-26T01:51:38.649Z,5.35
2022-09-26T01:54:15.446Z,5.13
2022-09-26T01:56:44.439Z,5.38
2022-09-26T01:59:20.422Z,5.93
2022-09-26T02:01:55.355Z,4.72
2022-09-26T02:04:29.322Z,5.28
2022-09-26T02:07:15.300Z,5.20
2022-09-26T02:09:45.494Z,5.05
2022-09-26T02:12:34.023Z,5.05
2022-09-26T02:15:06.117Z,5.47
2022-09-26T02:17:37.850Z,5.63
2022-09-26T02:20:11.584Z,6.10
2022-09-26T02:22:39.457Z,5.68
2022-09-26T02:25:08.412Z,5.72
2022-09-26T02:27:35.735Z,5.35
2022-09-26T02:30:05.730Z,6.05
2022-09-26T02:32:33.553Z,6.50
2022-09-26T02:35:22.171Z,6.57
2022-09-26T02:37:50.019Z,7.60
2022-09-26T02:40:20.205Z,6.68
2022-09-26T02:42:55.077Z,6.20
2022-09-26T02:46:11.632Z,6.82
2022-09-26T02:48:51.358Z,6.53
2022-09-26T02:51:49.758Z,6.82
2022-09-26T02:54:44.221Z,6.90
2022-09-26T02:57:22.433Z,6.50
2022-09-26T03:00:08.422Z,6.10
2022-09-26T03:02:43.101Z,6.82
2022-09-26T03:05:20.455Z,6.18
2022-09-26T03:08:15.754Z,6.10
2022-09-26T03:10:45.419Z,6.20
2022-09-26T03:13:17.011Z,6.38
2022-09-26T03:15:50.473Z,6.53
2022-09-26T03:18:22.623Z,6.00
2022-09-26T03:20:53.032Z,5.95
2022-09-26T03:23:34.090Z,5.90
2022-09-26T03:26:16.800Z,6.30
2022-09-26T03:28:53.863Z,5.65
2022-09-26T03:31:22.337Z,6.50
2022-09-26T03:36:23.390Z,5.28
2022-09-26T03:38:51.128Z,5.43
2022-09-26T03:41:42.155Z,5.47
2022-09-26T03:44:29.854Z,4.78
2022-09-26T03:47:18.144Z,5.70
2022-09-26T03:49:49.468Z,6.07
2022-09-26T03:52:16.963Z,5.65
2022-09-26T03:54:45.723Z,5.43
2022-09-26T03:57:16.124Z,5.15
2022-09-26T03:59:51.361Z,5.60
2022-09-26T04:02:20.749Z,6.07
2022-09-26T04:04:52.883Z,4.82
2022-09-26T04:07:20.227Z,5.22
2022-09-26T04:09:47.567Z,5.13
2022-09-26T04:12:15.114Z,5.32
2022-09-26T04:14:44.632Z,4.85
2022-09-26T04:17:12.742Z,4.97
2022-09-26T04:19:43.523Z,5.13
2022-09-26T04:22:11.022Z,5.43
2022-09-26T04:24:39.356Z,5.22
2022-09-26T04:27:08.526Z,5.38
2022-09-26T04:29:36.492Z,5.55
2022-09-26T04:32:30.528Z,5.18
2022-09-26T04:35:16.199Z,5.43
2022-09-26T04:37:43.519Z,4.85
2022-09-26T04:40:11.317Z,5.53
2022-09-26T04:42:44.030Z,5.45
2022-09-26T04:45:11.439Z,6.55
2022-09-26T04:47:38.790Z,5.47
2022-09-26T04:50:24.724Z,6.07
2022-09-26T04:53:12.281Z,5.63
2022-09-26T04:55:47.122Z,5.93
2022-09-26T04:58:16.610Z,4.68
2022-09-26T05:00:45.534Z,5.18
2022-09-26T05:03:15.586Z,4.70
2022-09-26T05:05:50.298Z,4.60
2022-09-26T05:08:17.707Z,4.72
2022-09-26T05:10:51.655Z,5.40
2022-09-26T05:13:19.239Z,5.47
2022-09-26T05:15:48.695Z,4.75
2022-09-26T05:18:16.391Z,4.60
2022-09-26T05:20:48.253Z,4.35
2022-09-26T05:23:42.121Z,4.78
2022-09-26T05:26:24.619Z,4.90
2022-09-26T05:29:08.771Z,4.88
2022-09-26T05:31:44.727Z,5.00
2022-09-26T05:34:19.237Z,4.25
2022-09-26T05:36:47.455Z,4.35
2022-09-26T05:39:33.226Z,4.38
2022-09-26T05:42:00.594Z,4.18
2022-09-26T05:44:28.749Z,4.07
2022-09-26T05:46:57.597Z,3.28
2022-09-26T05:49:27.712Z,3.78
2022-09-26T05:51:55.077Z,3.55
2022-09-26T05:54:22.537Z,3.78
2022-09-26T05:56:52.301Z,3.42
2022-09-26T05:59:38.251Z,3.58
2022-09-26T06:02:34.863Z,4.20
2022-09-26T06:05:14.342Z,3.50
2022-09-26T06:08:03.618Z,3.58
2022-09-26T06:10:44.782Z,3.33
2022-09-26T06:13:15.285Z,3.42
2022-09-26T06:15:52.632Z,3.50
2022-09-26T06:18:20.912Z,3.95
2022-09-26T06:20:48.230Z,3.42
2022-09-26T06:23:15.542Z,3.20
2022-09-26T06:25:45.591Z,4.00
2022-09-26T06:28:13.334Z,3.40
2022-09-26T06:30:40.708Z,3.25
2022-09-26T06:33:13.491Z,3.45
2022-09-26T06:36:04.001Z,3.53
2022-09-26T06:38:35.637Z,3.63
2022-09-26T06:41:08.497Z,3.00
2022-09-26T06:43:36.103Z,3.25
2022-09-26T06:46:09.542Z,3.22
2022-09-26T06:48:58.036Z,3.30
2022-09-26T06:51:43.335Z,3.40
2022-09-26T06:54:10.913Z,3.60
2022-09-26T06:56:38.146Z,2.88
2022-09-26T06:59:06.727Z,2.97
2022-09-26T07:01:36.197Z,3.53
2022-09-26T07:04:10.250Z,3.65
2022-09-26T07:07:05.555Z,3.75
2022-09-26T07:09:33.763Z,3.47
2022-09-26T07:12:16.999Z,3.10
2022-09-26T07:14:44.633Z,2.95
2022-09-26T07:17:21.282Z,3.28
2022-09-26T07:20:16.139Z,3.50
2022-09-26T07:23:09.258Z,2.95
2022-09-26T07:25:39.456Z,3.08
2022-09-26T07:28:09.068Z,2.60
2022-09-26T07:30:43.250Z,2.38
2022-09-26T07:33:16.159Z,2.53
2022-09-26T07:35:48.374Z,2.88
2022-09-26T07:38:16.251Z,2.53
2022-09-26T07:40:50.019Z,2.30
2022-09-26T07:43:24.141Z,2.50
2022-09-26T07:46:22.010Z,2.47
2022-09-26T07:49:10.429Z,1.92
2022-09-26T07:51:57.412Z,2.20
2022-09-26T07:54:35.151Z,2.13
2022-09-26T07:57:20.931Z,1.55
2022-09-26T08:00:21.228Z,1.70
2022-09-26T08:03:05.093Z,1.80
2022-09-26T08:05:36.125Z,1.60
2022-09-26T08:08:04.837Z,1.63
2022-09-26T08:10:50.764Z,1.88
2022-09-26T08:13:36.779Z,1.50
2022-09-26T08:16:29.468Z,1.60
2022-09-26T08:19:01.518Z,1.77
2022-09-26T08:21:29.554Z,1.60
2022-09-26T08:23:58.240Z,1.90
2022-09-26T08:26:44.818Z,1.70
2022-09-26T08:29:26.419Z,1.83
2022-09-26T08:31:55.559Z,1.40
2022-09-26T08:34:25.698Z,1.30
2022-09-26T08:37:13.809Z,1.33
2022-09-26T08:40:04.124Z,1.38
2022-09-26T08:43:04.834Z,1.63
2022-09-26T08:46:10.505Z,1.55
2022-09-26T08:49:23.296Z,1.55
2022-09-26T08:51:54.020Z,1.50
2022-09-26T08:54:36.911Z,1.70
2022-09-26T08:57:13.040Z,1.52
2022-09-26T08:59:43.709Z,1.88
2022-09-26T09:02:28.373Z,1.30
2022-09-26T09:05:10.046Z,1.70
2022-09-26T09:07:42.097Z,1.70
2022-09-26T09:10:17.858Z,2.17
2022-09-26T09:13:25.145Z,2.20
2022-09-26T09:16:38.682Z,2.22
2022-09-26T09:19:41.339Z,1.67
2022-09-26T09:22:25.798Z,1.73
2022-09-26T09:25:10.125Z,2.03
2022-09-26T09:28:00.088Z,1.58
2022-09-26T09:30:48.358Z,1.70
2022-09-26T09:33:49.545Z,2.00
2022-09-26T09:36:40.429Z,1.80
2022-09-26T09:39:22.177Z,1.85
2022-09-26T09:42:01.935Z,1.90
2022-09-26T09:44:47.027Z,1.42
2022-09-26T09:47:16.875Z,1.50
2022-09-26T09:49:47.069Z,1.52
2022-09-26T09:52:46.147Z,1.60
2022-09-26T09:55:31.380Z,1.70
2022-09-26T09:58:35.510Z,1.90
2022-09-26T10:01:17.810Z,1.80
2022-09-26T10:04:01.315Z,1.80
2022-09-26T10:06:45.179Z,1.60
2022-09-26T10:09:38.630Z,1.67
2022-09-26T10:12:30.597Z,1.48
2022-09-26T10:15:21.608Z,1.83
2022-09-26T10:18:26.688Z,1.73
2022-09-26T10:21:12.487Z,1.60
2022-09-26T10:23:43.167Z,2.10
2022-09-26T10:26:34.560Z,1.95
2022-09-26T10:29:21.642Z,1.42
2022-09-26T10:31:56.115Z,1.95
2022-09-26T10:34:30.808Z,1.80
2022-09-26T10:37:22.844Z,1.83
2022-09-26T10:40:15.887Z,1.70
2022-09-26T10:42:47.053Z,1.58
2022-09-26T10:45:27.123Z,1.30
2022-09-26T10:48:38.155Z,2.10
2022-09-26T10:51:37.151Z,1.90
2022-09-26T10:54:13.334Z,1.55
2022-09-26T10:56:47.384Z,1.55
2022-09-26T10:59:24.426Z,1.90
2022-09-26T11:01:56.544Z,1.90
2022-09-26T11:04:53.703Z,1.48
2022-09-26T11:07:59.515Z,1.80
2022-09-26T11:10:41.599Z,1.50
2022-09-26T11:13:24.648Z,1.73
2022-09-26T11:16:08.763Z,1.90
2022-09-26T11:18:48.401Z,2.08
2022-09-26T11:21:29.192Z,1.60
2022-09-26T11:24:21.230Z,1.90
2022-09-26T11:27:14.673Z,1.88
2022-09-26T11:29:45.162Z,1.70
2022-09-26T11:32:38.796Z,2.08
2022-09-26T11:35:33.892Z,1.77
2022-09-26T11:38:32.193Z,1.92
2022-09-26T11:41:38.872Z,1.38
2022-09-26T11:44:41.080Z,1.65
2022-09-26T11:47:50.903Z,1.65
2022-09-26T11:50:40.700Z,1.60
2022-09-26T11:53:45.904Z,1.40
2022-09-26T11:56:47.347Z,1.77
2022-09-26T11:59:32.257Z,1.67
2022-09-26T12:02:15.785Z,1.48
2022-09-26T12:05:29.744Z,1.50
2022-09-26T12:08:25.534Z,1.40
2022-09-26T12:11:10.986Z,1.48
2022-09-26T12:14:16.819Z,1.55
2022-09-26T12:16:47.989Z,1.55
2022-09-26T12:19:32.896Z,1.30
2022-09-26T12:22:29.488Z,1.45
2022-09-26T12:25:07.334Z,1.65
2022-09-26T12:27:44.014Z,1.48
2022-09-26T12:30:19.661Z,1.35
2022-09-26T12:33:08.512Z,1.27
2022-09-26T12:35:55.707Z,1.30
2022-09-26T12:38:47.694Z,1.73
2022-09-26T12:41:25.039Z,1.40
2022-09-26T12:44:40.624Z,1.80
2022-09-26T12:47:38.702Z,1.35
2022-09-26T12:50:31.009Z,2.13
2022-09-26T12:53:27.236Z,1.30
2022-09-26T12:56:40.538Z,1.58
2022-09-26T12:59:26.634Z,1.48
2022-09-26T13:02:18.714Z,1.20
2022-09-26T13:04:46.049Z,1.77
2022-09-26T13:07:29.109Z,2.38
2022-09-26T13:10:24.867Z,5.82
2022-09-26T13:13:10.063Z,2.38
2022-09-26T13:18:33.255Z,1.33
2022-09-26T13:21:08.951Z,1.40
2022-09-26T13:23:39.316Z,1.70
2022-09-26T13:26:30.878Z,1.75
2022-09-26T13:29:28.626Z,1.77
2022-09-26T13:32:14.485Z,1.58
2022-09-26T13:34:48.170Z,2.67
2022-09-26T13:38:09.960Z,1.65
2022-09-26T13:41:10.916Z,2.33
2022-09-26T13:44:07.568Z,2.10
2022-09-26T13:46:49.298Z,2.13
2022-09-26T13:49:26.873Z,1.60
2022-09-26T13:52:32.303Z,1.83
2022-09-26T13:55:03.267Z,1.88
2022-09-26T13:57:39.662Z,1.75
2022-09-26T14:00:25.769Z,2.10
2022-09-26T14:03:16.259Z,1.70
2022-09-26T14:05:50.761Z,1.92
2022-09-26T14:08:42.727Z,1.73
2022-09-26T14:11:19.194Z,1.45
2022-09-26T14:13:48.366Z,2.28
2022-09-26T14:16:45.652Z,3.28
2022-09-26T14:19:39.312Z,2.00
2022-09-26T14:22:18.996Z,2.45
2022-09-26T14:24:50.735Z,2.67
2022-09-26T14:27:18.135Z,2.28
2022-09-26T14:29:53.093Z,2.00
2022-09-26T14:32:26.958Z,2.30
2022-09-26T14:34:54.531Z,1.97
2022-09-26T14:37:24.753Z,2.50
2022-09-26T14:39:59.545Z,1.80
2022-09-26T14:45:18.831Z,2.08
2022-09-26T14:48:12.465Z,1.63
2022-09-26T14:50:53.898Z,3.00
2022-09-26T14:53:26.914Z,1.65
2022-09-26T14:56:01.504Z,2.47
2022-09-26T14:58:48.322Z,1.85
2022-09-26T15:01:28.135Z,2.88
2022-09-26T15:04:03.491Z,1.80
2022-09-26T15:06:39.202Z,2.10
2022-09-26T15:09:42.153Z,2.88
2022-09-26T15:12:21.218Z,3.05
2022-09-26T15:15:05.159Z,3.42
2022-09-26T15:17:37.055Z,3.10
2022-09-26T15:20:08.743Z,2.85
2022-09-26T15:22:36.033Z,3.72
2022-09-26T15:25:18.814Z,3.00
2022-09-26T15:27:49.205Z,2.63
2022-09-26T15:30:19.007Z,2.00
2022-09-26T15:32:49.038Z,1.85
2022-09-26T15:35:16.998Z,2.78
2022-09-26T15:37:45.766Z,1.60
2022-09-26T15:40:16.985Z,2.30
2022-09-26T15:43:01.548Z,1.35
2022-09-26T15:45:46.189Z,1.30
2022-09-26T15:48:19.762Z,1.70
2022-09-26T15:50:50.363Z,1.40
2022-09-26T15:53:33.576Z,1.33
2022-09-26T15:56:07.581Z,1.70
2022-09-26T15:58:53.776Z,1.50
2022-09-26T16:01:25.685Z,1.50
2022-09-26T16:04:04.888Z,1.23
2022-09-26T16:06:43.342Z,2.20
2022-09-26T16:09:22.250Z,1.85
2022-09-26T16:11:53.694Z,1.33
2022-09-26T16:14:59.082Z,1.40
2022-09-26T16:17:35.821Z,1.65
2022-09-26T16:20:18.386Z,1.02
2022-09-26T16:22:49.240Z,1.40
2022-09-26T16:25:23.887Z,2.53
2022-09-26T16:27:58.336Z,2.22
2022-09-26T16:30:25.698Z,2.10
2022-09-26T16:33:13.022Z,2.05
2022-09-26T16:35:48.172Z,1.40
2022-09-26T16:38:30.099Z,1.60
2022-09-26T16:41:10.768Z,1.90
2022-09-26T16:43:39.689Z,2.90
2022-09-26T16:46:19.109Z,1.70
2022-09-26T16:48:55.918Z,1.70
2022-09-26T16:51:27.008Z,2.70
2022-09-26T16:54:10.625Z,2.38
2022-09-26T16:56:43.044Z,2.58
2022-09-26T16:59:17.584Z,2.90
2022-09-26T17:01:54.956Z,2.50
2022-09-26T17:04:31.420Z,2.28
2022-09-26T17:07:14.065Z,1.90
2022-09-26T17:09:42.789Z,2.85
2022-09-26T17:12:21.876Z,2.17
2022-09-26T17:14:51.969Z,2.08
2022-09-26T17:17:22.236Z,1.88
2022-09-26T17:19:56.792Z,1.85
2022-09-26T17:22:26.878Z,1.92
2022-09-26T17:24:54.883Z,1.83
2022-09-26T17:27:27.082Z,1.80
2022-09-26T17:30:00.323Z,2.35
2022-09-26T17:32:32.041Z,2.28
2022-09-26T17:35:02.726Z,2.20
2022-09-26T17:37:30.192Z,1.90
2022-09-26T17:39:57.691Z,2.03
2022-09-26T17:42:25.307Z,2.05
2022-09-26T17:44:52.637Z,2.17
2022-09-26T17:47:20.115Z,2.30
2022-09-26T17:49:55.966Z,2.15
2022-09-26T17:52:28.779Z,2.80
2022-09-26T17:54:58.777Z,2.35
2022-09-26T17:57:30.006Z,3.85
2022-09-26T17:59:58.145Z,3.90
2022-09-26T18:02:37.425Z,2.38
2022-09-26T18:05:15.032Z,2.13
2022-09-26T18:07:43.423Z,3.03
2022-09-26T18:10:20.962Z,2.80
2022-09-26T18:12:57.225Z,2.00
2022-09-26T18:15:26.153Z,1.60
2022-09-26T18:17:54.074Z,1.50
2022-09-26T18:20:27.130Z,1.38
2022-09-26T18:22:54.577Z,1.70
2022-09-26T18:25:25.004Z,1.40
2022-09-26T18:27:55.723Z,1.70
2022-09-26T18:30:24.196Z,1.40
2022-09-26T18:32:56.120Z,1.70
2022-09-26T18:35:27.730Z,1.80
2022-09-26T18:37:56.060Z,1.75
2022-09-26T18:40:25.562Z,2.10
2022-09-26T18:42:55.972Z,1.50
2022-09-26T18:45:29.233Z,2.00
2022-09-26T18:47:56.992Z,1.90
2022-09-26T18:50:27.006Z,1.83
2022-09-26T18:52:54.563Z,1.77
2022-09-26T18:55:43.748Z,1.83
2022-09-26T18:58:25.423Z,2.00
2022-09-26T19:01:01.394Z,2.35
2022-09-26T19:03:36.064Z,2.10
2022-09-26T19:06:07.888Z,2.10
2022-09-26T19:08:38.914Z,2.20
2022-09-26T19:11:13.199Z,2.25
2022-09-26T19:13:41.709Z,2.63
2022-09-26T19:16:09.997Z,2.42
2022-09-26T19:18:38.405Z,2.75
2022-09-26T19:21:31.563Z,3.00
2022-09-26T19:24:08.328Z,2.67
2022-09-26T19:26:40.579Z,2.92
2022-09-26T19:29:12.977Z,3.30
2022-09-26T19:31:41.500Z,3.35
2022-09-26T19:34:14.717Z,3.63
2022-09-26T19:36:42.245Z,3.33
2022-09-26T19:39:13.418Z,3.22
2022-09-26T19:41:40.858Z,3.47
2022-09-26T19:44:08.333Z,3.08
2022-09-26T19:46:37.143Z,2.70
2022-09-26T19:49:05.882Z,3.38
2022-09-26T19:51:38.003Z,3.28
2022-09-26T19:54:06.633Z,3.30
2022-09-26T19:56:34.842Z,3.10
2022-09-26T19:59:02.155Z,3.90
2022-09-26T20:01:29.770Z,3.65
2022-09-26T20:03:57.104Z,4.10
2022-09-26T20:06:25.810Z,3.95
2022-09-26T20:09:01.787Z,4.13
2022-09-26T20:11:29.463Z,4.75
2022-09-26T20:14:15.466Z,5.22
2022-09-26T20:16:43.124Z,5.63
2022-09-26T20:19:18.735Z,4.93
2022-09-26T20:21:46.078Z,5.80
2022-09-26T20:24:18.490Z,6.47
2022-09-26T20:26:47.784Z,6.53
2022-09-26T20:29:16.820Z,6.70
2022-09-26T20:31:44.838Z,6.95
2022-09-26T20:34:12.445Z,6.68
2022-09-26T20:36:46.924Z,7.13
2022-09-26T20:39:17.758Z,6.32
2022-09-26T20:41:45.330Z,6.75
2022-09-26T20:44:27.827Z,7.38
2022-09-26T20:46:58.898Z,7.10
2022-09-26T20:49:38.211Z,7.43
2022-09-26T20:52:08.777Z,6.93
2022-09-26T20:54:36.259Z,7.80
2022-09-26T20:57:03.616Z,8.75
2022-09-26T20:59:34.853Z,8.23
2022-09-26T21:02:33.368Z,9.02
2022-09-26T21:05:01.831Z,9.38
2022-09-26T21:07:33.076Z,8.43
2022-09-26T21:10:00.467Z,8.13
2022-09-26T21:12:27.793Z,8.20
2022-09-26T21:14:55.140Z,7.55
2022-09-26T21:17:28.180Z,7.32
2022-09-26T21:19:56.197Z,7.20
2022-09-26T21:22:46.671Z,6.95
2022-09-26T21:25:19.370Z,6.43
2022-09-26T21:27:49.202Z,7.18
2022-09-26T21:30:17.416Z,7.20
2022-09-26T21:32:48.309Z,6.07
2022-09-26T21:35:18.110Z,6.57
2022-09-26T21:37:48.974Z,6.32
2022-09-26T21:40:17.037Z,6.82
2022-09-26T21:42:48.807Z,6.85
2022-09-26T21:45:17.867Z,6.47
2022-09-26T21:47:45.670Z,8.10
2022-09-26T21:50:13.299Z,7.28
2022-09-26T21:52:46.448Z,7.40
2022-09-26T21:55:18.224Z,6.82
2022-09-26T21:57:47.226Z,6.70
2022-09-26T22:00:15.423Z,6.80
2022-09-26T22:02:42.798Z,6.63
2022-09-26T22:05:11.832Z,5.22
2022-09-26T22:07:39.405Z,4.95
2022-09-26T22:10:07.130Z,4.57
2022-09-26T22:12:34.478Z,5.03
2022-09-26T22:15:01.905Z,4.97
2022-09-26T22:17:29.257Z,4.30
2022-09-26T22:19:56.587Z,4.13
2022-09-26T22:22:24.557Z,5.07
2022-09-26T22:24:53.785Z,4.10
2022-09-26T22:27:21.485Z,3.83
2022-09-26T22:29:48.805Z,4.63
2022-09-26T22:32:16.154Z,4.70
2022-09-26T22:34:43.480Z,3.47
2022-09-26T22:37:10.840Z,3.70
2022-09-26T22:39:38.139Z,3.47
2022-09-26T22:42:05.632Z,3.45
2022-09-26T22:44:33.454Z,3.28
2022-09-26T22:47:00.747Z,2.78
2022-09-26T22:49:28.631Z,4.10
2022-09-26T22:51:56.442Z,3.08
2022-09-26T22:54:23.931Z,3.10
2022-09-26T22:56:51.239Z,3.60
2022-09-26T22:59:18.633Z,2.70
2022-09-26T23:01:46.008Z,3.35
2022-09-26T23:04:13.345Z,3.80
2022-09-26T23:06:40.741Z,3.60
2022-09-26T23:09:08.122Z,3.92
2022-09-26T23:11:35.467Z,3.22
2022-09-26T23:14:02.808Z,3.47
2022-09-26T23:16:30.179Z,3.35
2022-09-26T23:18:58.146Z,3.40
2022-09-26T23:21:27.158Z,3.20
2022-09-26T23:23:56.802Z,2.85
2022-09-26T23:26:27.635Z,2.63
2022-09-26T23:28:56.379Z,3.28
2022-09-26T23:31:25.453Z,2.97
2022-09-26T23:33:53.259Z,3.05
2022-09-26T23:36:21.174Z,2.63
2022-09-26T23:38:48.616Z,3.20
2022-09-26T23:41:16.192Z,2.88
2022-09-26T23:43:44.010Z,3.08
2022-09-26T23:46:11.443Z,2.80
2022-09-26T23:48:39.453Z,2.83
2022-09-26T23:51:07.187Z,2.58
2022-09-26T23:53:34.917Z,2.92
2022-09-26T23:56:10.430Z,2.90
2022-09-26T23:58:38.322Z,3.45
